Time;durP1;ratioP1;P1;durP2;ratioP2;P2;SDS_P1;SDS_P2;PMS_P1;PMS_P2;Temp;Humidity;BMP_temperature;BMP_pressure;BME280_temperature;BME280_humidity;BME280_pressure;Samples;Min_cycle;Max_cycle;Signal;HPM_P1;HPM_P2
2023/08/02 00:01:09;;;;;;;2.35;0.90;;;19.20;99.90;;;;;;4819235;29;20190;-78
2023/08/02 00:03:36;;;;;;;1.83;0.95;;;19.20;99.90;;;;;;4809795;29;20054;-78
2023/08/02 00:06:03;;;;;;;4.00;1.02;;;19.10;99.90;;;;;;4808733;29;20049;-78
2023/08/02 00:08:31;;;;;;;2.30;0.98;;;19.10;99.90;;;;;;4817484;29;20054;-79
2023/08/02 00:10:59;;;;;;;3.17;1.00;;;19.10;99.90;;;;;;4838570;29;20057;-79
2023/08/02 00:13:26;;;;;;;2.75;1.13;;;19.10;99.90;;;;;;4821714;29;20089;-79
2023/08/02 00:15:53;;;;;;;3.45;1.10;;;19.20;99.90;;;;;;4823974;29;20150;-79
2023/08/02 00:18:20;;;;;;;4.28;0.95;;;19.20;99.90;;;;;;4834300;29;20057;-78
2023/08/02 00:20:48;;;;;;;1.85;0.70;;;19.20;99.90;;;;;;4832337;29;20080;-78
2023/08/02 00:23:15;;;;;;;3.42;0.75;;;19.20;99.90;;;;;;4828174;29;20057;-78
2023/08/02 00:25:43;;;;;;;1.83;0.73;;;19.20;99.90;;;;;;4818225;29;20082;-78
2023/08/02 00:28:10;;;;;;;2.55;1.30;;;19.20;99.90;;;;;;4817482;29;20132;-78
2023/08/02 00:30:47;;;;;;;3.72;1.20;;;19.20;99.90;;;;;;4803562;29;20053;-78
2023/08/02 00:33:15;;;;;;;3.08;1.23;;;19.20;99.90;;;;;;4805207;29;20231;-78
2023/08/02 00:35:46;;;;;;;2.83;1.38;;;19.10;99.90;;;;;;4819246;29;20053;-79
2023/08/02 00:38:13;;;;;;;2.90;1.25;;;19.00;99.90;;;;;;4820868;29;20129;-78
2023/08/02 00:40:41;;;;;;;3.70;1.58;;;18.90;99.90;;;;;;4828738;29;20121;-79
2023/08/02 00:43:08;;;;;;;4.30;1.90;;;18.90;99.90;;;;;;4808055;29;20429;-79
2023/08/02 00:45:36;;;;;;;3.90;1.67;;;19.00;99.90;;;;;;4830337;29;20061;-79
2023/08/02 00:48:04;;;;;;;3.80;1.98;;;18.90;99.90;;;;;;4838546;29;20054;-79
2023/08/02 00:50:33;;;;;;;2.42;1.27;;;18.80;99.90;;;;;;4818039;29;20498;-78
2023/08/02 00:53:02;;;;;;;4.20;1.50;;;18.80;99.90;;;;;;4838782;29;20505;-79
2023/08/02 00:55:29;;;;;;;4.03;1.35;;;18.70;99.90;;;;;;4797975;29;20125;-79
2023/08/02 00:57:57;;;;;;;3.38;1.33;;;18.80;99.90;;;;;;4869583;24;20057;-78
2023/08/02 01:00:24;;;;;;;4.20;1.63;;;18.70;99.90;;;;;;4805618;29;20081;-80
2023/08/02 01:02:52;;;;;;;3.05;1.75;;;18.80;99.90;;;;;;4809334;29;20054;-80
2023/08/02 01:05:26;;;;;;;3.10;1.40;;;18.90;99.90;;;;;;4804187;29;20068;-80
2023/08/02 01:08:00;;;;;;;3.20;1.38;;;18.90;99.90;;;;;;4803199;29;20055;-80
2023/08/02 01:10:50;;;;;;;3.88;1.25;;;18.90;99.90;;;;;;4800047;29;20054;-78
2023/08/02 01:13:20;;;;;;;3.55;1.40;;;18.90;99.90;;;;;;4805617;29;20733;-80
2023/08/02 01:15:48;;;;;;;7.80;1.70;;;18.80;99.90;;;;;;4801625;29;20064;-80
2023/08/02 01:18:16;;;;;;;3.67;1.00;;;18.80;99.90;;;;;;4816835;29;20106;-80
2023/08/02 01:20:43;;;;;;;4.70;1.25;;;18.80;99.90;;;;;;4792649;29;20062;-81
2023/08/02 01:23:10;;;;;;;4.07;1.38;;;18.90;99.90;;;;;;4815595;29;20062;-78
2023/08/02 01:25:39;;;;;;;3.10;0.98;;;18.90;99.90;;;;;;4811026;29;20133;-80
2023/08/02 01:28:14;;;;;;;4.05;1.10;;;18.80;99.90;;;;;;4787480;29;20137;-78
2023/08/02 01:30:42;;;;;;;4.00;1.23;;;18.80;99.90;;;;;;4801961;29;20058;-80
2023/08/02 01:33:10;;;;;;;2.75;1.17;;;18.80;99.90;;;;;;4803893;29;20050;-79
2023/08/02 01:35:38;;;;;;;2.42;0.95;;;18.80;99.90;;;;;;4802278;29;20060;-80
2023/08/02 01:38:06;;;;;;;4.10;1.33;;;18.80;99.90;;;;;;4817034;29;20074;-80
2023/08/02 01:40:33;;;;;;;1.90;0.93;;;18.70;99.90;;;;;;4796079;29;20517;-79
2023/08/02 01:43:00;;;;;;;4.32;1.40;;;18.70;99.90;;;;;;4817012;29;20091;-80
2023/08/02 01:45:27;;;;;;;2.92;1.10;;;18.70;99.90;;;;;;4802920;29;20057;-80
2023/08/02 01:47:55;;;;;;;4.28;1.50;;;18.60;99.90;;;;;;4805190;29;20697;-80
2023/08/02 01:50:22;;;;;;;2.17;1.00;;;18.60;99.90;;;;;;4809692;29;20050;-80
2023/08/02 01:52:49;;;;;;;3.75;1.73;;;18.60;99.90;;;;;;4817683;29;20062;-80
2023/08/02 01:55:17;;;;;;;4.97;1.20;;;18.60;99.90;;;;;;4799752;29;20062;-80
2023/08/02 01:57:45;;;;;;;4.28;1.75;;;18.60;99.90;;;;;;4800703;29;20480;-79
2023/08/02 02:00:12;;;;;;;5.72;1.70;;;18.60;99.90;;;;;;4807826;29;20637;-80
2023/08/02 02:02:42;;;;;;;3.50;1.38;;;18.50;99.90;;;;;;4802367;29;20050;-80
2023/08/02 02:05:09;;;;;;;3.15;1.27;;;18.40;99.90;;;;;;4800975;29;20054;-80
2023/08/02 02:07:36;;;;;;;2.85;1.25;;;18.50;99.90;;;;;;4801332;29;20050;-80
2023/08/02 02:10:04;;;;;;;3.50;1.40;;;18.50;99.90;;;;;;4802129;29;20042;-80
2023/08/02 02:12:31;;;;;;;4.03;1.45;;;18.50;99.90;;;;;;4786673;29;20511;-80
2023/08/02 02:14:58;;;;;;;3.33;1.58;;;18.50;99.90;;;;;;4819266;29;20058;-80
2023/08/02 02:17:25;;;;;;;2.78;1.13;;;18.40;99.90;;;;;;4810588;29;20088;-81
2023/08/02 02:19:53;;;;;;;3.10;1.38;;;18.30;99.90;;;;;;4803333;29;20061;-81
2023/08/02 02:22:20;;;;;;;3.35;1.48;;;18.30;99.90;;;;;;4802354;29;20063;-81
2023/08/02 02:24:47;;;;;;;2.80;1.08;;;18.20;99.90;;;;;;4800962;29;20050;-78
2023/08/02 02:27:14;;;;;;;3.40;1.58;;;18.30;99.90;;;;;;4790942;29;22329;-80
2023/08/02 02:29:41;;;;;;;2.67;1.40;;;18.30;99.90;;;;;;4788007;29;20486;-78
2023/08/02 02:32:10;;;;;;;4.15;1.60;;;18.30;99.90;;;;;;4798510;29;20145;-80
2023/08/02 02:34:37;;;;;;;4.20;1.30;;;18.30;99.90;;;;;;4806411;29;20061;-78
2023/08/02 02:37:04;;;;;;;4.45;1.40;;;18.30;99.90;;;;;;4801479;29;20137;-80
2023/08/02 02:39:31;;;;;;;4.30;1.65;;;18.30;99.90;;;;;;4818568;29;20527;-78
2023/08/02 02:41:58;;;;;;;5.53;1.55;;;18.30;99.90;;;;;;4805621;29;20061;-79
2023/08/02 02:44:42;;;;;;;4.80;1.40;;;18.30;99.90;;;;;;4803191;29;20124;-79
2023/08/02 02:47:10;;;;;;;2.70;1.42;;;18.30;99.90;;;;;;4811318;29;20057;-80
2023/08/02 02:49:37;;;;;;;3.92;1.50;;;18.30;99.90;;;;;;4789109;29;20494;-80
2023/08/02 02:52:05;;;;;;;3.28;1.60;;;18.20;99.90;;;;;;4799443;29;20060;-80
2023/08/02 02:54:33;;;;;;;3.85;1.83;;;18.20;99.90;;;;;;4804299;29;20414;-80
2023/08/02 02:57:00;;;;;;;3.15;1.25;;;18.10;99.90;;;;;;4793940;29;20066;-80
2023/08/02 02:59:27;;;;;;;3.95;1.70;;;18.10;99.90;;;;;;4819712;29;20418;-80
2023/08/02 03:01:54;;;;;;;3.70;1.67;;;18.10;99.90;;;;;;4809356;29;20503;-80
2023/08/02 03:04:22;;;;;;;4.18;1.80;;;18.10;99.90;;;;;;4821880;29;20460;-80
2023/08/02 03:06:49;;;;;;;6.88;1.92;;;18.10;99.90;;;;;;4813597;29;20122;-80
2023/08/02 03:09:17;;;;;;;2.42;1.23;;;18.10;99.90;;;;;;4794701;29;20092;-80
2023/08/02 03:11:44;;;;;;;5.70;1.70;;;18.10;99.90;;;;;;4800057;29;20949;-80
2023/08/02 03:14:12;;;;;;;4.10;1.55;;;18.00;99.90;;;;;;4801592;29;22382;-80
2023/08/02 03:16:43;;;;;;;3.30;1.50;;;18.00;99.90;;;;;;4796749;29;20072;-79
2023/08/02 03:19:13;;;;;;;3.25;1.52;;;18.00;99.90;;;;;;4797362;29;20534;-80
2023/08/02 03:21:40;;;;;;;3.55;1.50;;;18.00;99.90;;;;;;4812978;29;20039;-80
2023/08/02 03:24:07;;;;;;;6.00;2.15;;;18.00;99.90;;;;;;4812868;29;20058;-80
2023/08/02 03:26:34;;;;;;;5.72;1.88;;;17.90;99.90;;;;;;4802621;29;20055;-80
2023/08/02 03:29:01;;;;;;;4.72;2.17;;;18.00;99.90;;;;;;4808657;29;20460;-80
2023/08/02 03:31:28;;;;;;;4.32;1.88;;;17.90;99.90;;;;;;4809723;29;20222;-80
2023/08/02 03:33:56;;;;;;;5.53;1.88;;;17.90;99.90;;;;;;4794348;29;20054;-80
2023/08/02 03:36:23;;;;;;;3.60;1.95;;;18.00;99.90;;;;;;4800531;29;22253;-80
2023/08/02 03:38:50;;;;;;;4.43;2.25;;;18.00;99.90;;;;;;4807789;29;20718;-80
2023/08/02 03:41:17;;;;;;;5.22;2.38;;;18.00;99.90;;;;;;4784265;29;20054;-80
2023/08/02 03:43:44;;;;;;;4.95;2.65;;;17.90;99.90;;;;;;4792796;29;20544;-80
2023/08/02 03:46:11;;;;;;;5.88;2.75;;;18.00;99.90;;;;;;4791962;29;20113;-80
2023/08/02 03:48:39;;;;;;;5.15;2.47;;;17.90;99.90;;;;;;4802637;29;20057;-79
2023/08/02 03:51:06;;;;;;;4.15;2.15;;;18.00;99.90;;;;;;4802683;29;20051;-78
2023/08/02 03:53:33;;;;;;;5.82;2.47;;;18.00;99.90;;;;;;4805623;29;20057;-80
2023/08/02 03:56:00;;;;;;;9.45;3.40;;;18.00;99.90;;;;;;4787393;29;20058;-80
2023/08/02 03:58:28;;;;;;;4.78;2.20;;;18.00;99.90;;;;;;4792377;29;20718;-78
2023/08/02 04:00:55;;;;;;;6.05;2.53;;;18.00;99.90;;;;;;4789124;29;20070;-80
2023/08/02 04:03:23;;;;;;;4.18;2.08;;;18.00;99.90;;;;;;4803152;29;20145;-80
2023/08/02 04:05:50;;;;;;;5.07;2.08;;;17.90;99.90;;;;;;4802661;29;22305;-80
2023/08/02 04:08:17;;;;;;;5.03;1.95;;;18.00;99.90;;;;;;4800732;29;22243;-80
2023/08/02 04:10:44;;;;;;;4.13;2.03;;;18.00;99.90;;;;;;4814225;29;20062;-80
2023/08/02 04:13:11;;;;;;;4.03;2.10;;;18.10;99.90;;;;;;4797895;29;20057;-80
2023/08/02 04:15:38;;;;;;;4.60;2.63;;;18.10;99.90;;;;;;4786859;29;20574;-80
2023/08/02 04:18:05;;;;;;;5.28;2.28;;;18.00;99.90;;;;;;4787149;29;20141;-79
2023/08/02 04:20:36;;;;;;;7.63;2.50;;;18.00;99.90;;;;;;4792229;29;20486;-78
2023/08/02 04:23:03;;;;;;;5.10;2.20;;;18.00;99.90;;;;;;4790959;29;20089;-81
2023/08/02 04:25:30;;;;;;;4.97;2.22;;;18.00;99.90;;;;;;4792337;29;20053;-80
2023/08/02 04:27:57;;;;;;;4.43;2.13;;;18.00;99.90;;;;;;4789188;29;20607;-80
2023/08/02 04:30:24;;;;;;;5.32;2.42;;;18.00;99.90;;;;;;4786439;29;20543;-80
2023/08/02 04:32:53;;;;;;;5.53;2.47;;;18.10;99.90;;;;;;4823846;29;20524;-80
2023/08/02 04:35:21;;;;;;;4.55;2.70;;;18.10;99.90;;;;;;4803422;29;20056;-80
2023/08/02 04:37:48;;;;;;;4.68;2.22;;;18.20;99.90;;;;;;4806871;29;20180;-80
2023/08/02 04:40:15;;;;;;;4.82;2.10;;;18.30;99.90;;;;;;4795296;29;20640;-80
2023/08/02 04:42:42;;;;;;;3.72;1.83;;;18.30;99.90;;;;;;4808132;29;20050;-80
2023/08/02 04:45:10;;;;;;;4.00;2.00;;;18.30;99.90;;;;;;4816416;29;20562;-80
2023/08/02 04:47:37;;;;;;;2.78;1.60;;;18.30;99.90;;;;;;4817958;29;20061;-80
2023/08/02 04:50:05;;;;;;;4.65;1.92;;;18.40;99.90;;;;;;4811130;29;20046;-80
2023/08/02 04:52:33;;;;;;;3.95;1.92;;;18.40;99.90;;;;;;4807667;29;20046;-80
2023/08/02 04:55:01;;;;;;;5.53;2.00;;;18.40;99.90;;;;;;4799924;29;20077;-80
2023/08/02 04:57:28;;;;;;;3.55;1.95;;;18.30;99.90;;;;;;4812241;29;20401;-78
2023/08/02 04:59:55;;;;;;;4.03;1.58;;;18.30;99.90;;;;;;4804498;29;20054;-78
2023/08/02 05:02:26;;;;;;;3.92;1.40;;;18.40;99.90;;;;;;4803998;29;20061;-78
2023/08/02 05:04:53;;;;;;;7.10;2.35;;;18.40;99.90;;;;;;4794904;29;20062;-80
2023/08/02 05:07:20;;;;;;;3.97;1.75;;;18.40;99.90;;;;;;4814205;29;20682;-80
2023/08/02 05:09:47;;;;;;;5.00;2.28;;;18.40;99.90;;;;;;4800576;29;20074;-80
2023/08/02 05:12:17;;;;;;;6.70;1.55;;;18.50;99.90;;;;;;4794448;29;20138;-81
2023/08/02 05:14:44;;;;;;;6.38;1.98;;;18.50;99.90;;;;;;4802600;29;20145;-81
2023/08/02 05:17:11;;;;;;;4.75;2.25;;;18.50;99.90;;;;;;4829104;29;20081;-79
2023/08/02 05:19:38;;;;;;;3.33;1.73;;;18.60;99.90;;;;;;4805021;29;20149;-81
2023/08/02 05:22:06;;;;;;;3.22;1.60;;;18.70;99.90;;;;;;4822576;29;20053;-81
2023/08/02 05:24:33;;;;;;;5.65;2.03;;;18.80;99.90;;;;;;4818353;29;20082;-81
2023/08/02 05:27:00;;;;;;;6.38;2.20;;;18.90;99.90;;;;;;4806883;29;20058;-80
2023/08/02 05:29:27;;;;;;;4.43;1.73;;;18.90;99.90;;;;;;4811946;29;20180;-80
2023/08/02 05:31:54;;;;;;;5.65;1.70;;;19.00;99.90;;;;;;4798070;29;20142;-81
2023/08/02 05:34:21;;;;;;;5.40;1.88;;;19.10;99.90;;;;;;4832600;29;20457;-81
2023/08/02 05:36:48;;;;;;;5.57;2.10;;;19.30;99.90;;;;;;4803302;29;20835;-81
2023/08/02 05:39:15;;;;;;;6.07;2.17;;;19.30;99.90;;;;;;4829474;29;20493;-81
2023/08/02 05:41:43;;;;;;;6.22;2.03;;;19.40;99.90;;;;;;4806137;29;20059;-81
2023/08/02 05:44:10;;;;;;;4.65;2.13;;;19.60;99.90;;;;;;4832068;29;20399;-81
2023/08/02 05:46:38;;;;;;;3.20;1.63;;;19.70;99.90;;;;;;4829342;29;20450;-81
2023/08/02 05:49:05;;;;;;;5.05;1.95;;;19.90;99.90;;;;;;4845883;29;20041;-81
2023/08/02 05:51:34;;;;;;;4.35;1.85;;;19.80;99.90;;;;;;4836576;29;20047;-81
2023/08/02 05:54:01;;;;;;;4.45;1.63;;;20.00;99.90;;;;;;5065297;23;20084;-80
2023/08/02 05:56:29;;;;;;;3.42;1.85;;;20.00;99.90;;;;;;4869443;24;20070;-80
2023/08/02 05:59:06;;;;;;;3.33;1.92;;;20.10;99.90;;;;;;4863894;29;20060;-80
2023/08/02 06:01:33;;;;;;;3.90;2.00;;;20.30;99.90;;;;;;4926494;24;20939;-80
2023/08/02 06:04:05;;;;;;;2.88;1.92;;;20.40;99.90;;;;;;4857880;29;20058;-80
2023/08/02 06:06:32;;;;;;;3.40;1.75;;;20.50;99.90;;;;;;4854204;29;20053;-80
2023/08/02 06:08:59;;;;;;;2.90;1.77;;;20.60;99.90;;;;;;4830427;29;20441;-80
2023/08/02 06:11:26;;;;;;;4.07;2.28;;;20.80;99.90;;;;;;4834550;29;20109;-80
2023/08/02 06:13:55;;;;;;;3.95;2.30;;;20.60;99.90;;;;;;4826164;29;20119;-80
2023/08/02 06:16:22;;;;;;;4.43;1.90;;;20.90;99.90;;;;;;4838764;29;20144;-80
2023/08/02 06:18:51;;;;;;;5.70;2.03;;;21.00;99.90;;;;;;4976300;24;20049;-79
2023/08/02 06:21:40;;;;;;;2.00;1.35;;;21.10;99.90;;;;;;5026638;24;20024;31
2023/08/02 06:24:57;;;;;;;2.55;1.40;;;21.30;99.90;;;;;;5135408;23;20105;31
2023/08/02 06:27:32;;;;;;;1.83;1.45;;;21.50;99.90;;;;;;4996574;23;20126;-80
2023/08/02 06:30:01;;;;;;;2.65;1.35;;;21.60;99.90;;;;;;4861741;29;20054;-80
2023/08/02 06:32:51;;;;;;;2.30;1.40;;;21.60;99.90;;;;;;4864955;24;20391;31
2023/08/02 06:35:53;;;;;;;3.03;1.50;;;21.70;99.90;;;;;;5232212;23;20112;31
2023/08/02 06:38:21;;;;;;;2.55;1.40;;;21.90;99.90;;;;;;5163916;24;20853;-80
2023/08/02 06:40:49;;;;;;;2.67;1.25;;;21.90;99.90;;;;;;4970264;24;20180;-80
2023/08/02 06:43:20;;;;;;;4.57;1.63;;;21.90;99.90;;;;;;4925533;24;20053;31
2023/08/02 06:49:07;;;;;;;2.40;1.30;;;21.90;99.60;;;;;;5002217;23;20049;-80
2023/08/02 06:51:42;;;;;;;2.85;0.90;;;21.90;99.90;;;;;;4888436;24;20064;-79
2023/08/02 06:54:19;;;;;;;3.90;0.90;;;22.20;99.90;;;;;;5028990;24;20064;-79
2023/08/02 06:56:46;;;;;;;2.63;1.30;;;22.40;99.90;;;;;;5183055;24;20065;-81
2023/08/02 07:02:20;;;;;;;3.03;1.10;;;22.50;98.70;;;;;;5708653;23;20061;-80
2023/08/02 07:04:47;;;;;;;1.85;0.82;;;22.70;98.40;;;;;;5034071;23;20027;-78
2023/08/02 07:07:23;;;;;;;3.88;0.88;;;22.80;97.50;;;;;;5144675;24;20100;-80
2023/08/02 07:10:05;;;;;;;2.78;1.25;;;22.70;97.00;;;;;;5171863;24;20113;-80
2023/08/02 07:12:32;;;;;;;1.85;0.88;;;22.70;96.20;;;;;;4922638;24;20050;-80
2023/08/02 07:15:06;;;;;;;2.75;0.90;;;22.70;95.30;;;;;;4862805;29;20140;-80
2023/08/02 07:18:03;;;;;;;2.50;0.75;;;22.90;95.60;;;;;;5149529;23;20057;-80
2023/08/02 07:21:16;;;;;;;3.60;0.93;;;23.10;94.90;;;;;;4847443;29;20125;-81
2023/08/02 07:23:53;;;;;;;2.22;0.85;;;23.00;95.10;;;;;;4825956;29;20034;-82
2023/08/02 07:38:28;;;;;;;1.83;0.82;;;23.70;94.50;;;;;;4915441;23;20081;-83
2023/08/02 07:41:05;;;;;;;2.45;0.80;;;23.80;94.40;;;;;;4822431;29;20054;-83
2023/08/02 07:43:35;;;;;;;3.78;0.70;;;23.80;93.10;;;;;;4830492;29;20057;-82
2023/08/02 07:46:02;;;;;;;2.28;0.80;;;23.80;92.80;;;;;;4812403;29;20538;-82
2023/08/02 07:51:48;;;;;;;2.35;0.77;;;24.00;92.50;;;;;;4785059;29;20062;-83
2023/08/02 07:54:15;;;;;;;2.25;0.57;;;24.10;91.40;;;;;;4809934;29;20182;-84
2023/08/02 08:00:28;;;;;;;1.48;0.70;;;24.10;89.70;;;;;;4977428;23;20088;-81
2023/08/02 08:02:57;;;;;;;2.97;0.90;;;24.20;89.90;;;;;;4839250;29;20066;-84
2023/08/02 08:05:29;;;;;;;1.98;0.70;;;24.00;88.80;;;;;;4831306;29;20133;-83
2023/08/02 08:07:58;;;;;;;1.75;0.70;;;24.10;88.00;;;;;;4810700;29;20049;-84
2023/08/02 08:10:32;;;;;;;3.60;0.47;;;24.20;87.40;;;;;;4856042;29;20104;-84
2023/08/02 08:13:04;;;;;;;4.95;0.90;;;24.20;86.90;;;;;;4811012;29;20151;-85
2023/08/02 08:15:40;;;;;;;4.10;0.50;;;24.30;86.20;;;;;;4827202;29;20064;-84
2023/08/02 08:18:08;;;;;;;3.75;0.68;;;24.30;86.10;;;;;;4826657;29;20643;-83
2023/08/02 08:20:35;;;;;;;1.80;0.57;;;24.30;86.00;;;;;;4829141;29;20053;-83
2023/08/02 08:23:03;;;;;;;1.65;0.50;;;24.40;85.40;;;;;;4848022;29;20559;-83
2023/08/02 08:25:31;;;;;;;5.32;0.60;;;24.30;83.10;;;;;;4856287;29;20169;-82
2023/08/02 08:28:04;;;;;;;2.45;0.98;;;24.30;82.90;;;;;;4851622;29;20145;-84
2023/08/02 08:30:32;;;;;;;2.70;0.73;;;24.30;82.10;;;;;;4833239;29;20152;-83
2023/08/02 08:32:59;;;;;;;1.77;0.60;;;24.50;83.00;;;;;;4857134;29;20061;-83
2023/08/02 08:35:29;;;;;;;2.25;0.68;;;24.30;82.40;;;;;;4846530;29;20103;-86
2023/08/02 08:37:56;;;;;;;3.42;0.60;;;24.40;83.30;;;;;;4845782;29;20195;-84
2023/08/02 08:40:24;;;;;;;2.53;0.50;;;24.40;82.10;;;;;;4837140;29;20053;-83
2023/08/02 08:42:53;;;;;;;2.05;0.60;;;24.40;81.20;;;;;;4831749;29;20177;-83
2023/08/02 08:45:22;;;;;;;2.80;0.52;;;24.50;81.70;;;;;;4827325;29;20194;-85
2023/08/02 08:47:51;;;;;;;1.63;0.40;;;24.60;80.60;;;;;;4833156;29;20056;-84
2023/08/02 08:50:20;;;;;;;1.52;0.50;;;24.60;79.80;;;;;;4838314;29;20078;-82
2023/08/02 08:52:51;;;;;;;0.80;0.40;;;24.40;79.10;;;;;;4845486;29;20057;-83
2023/08/02 08:55:22;;;;;;;5.68;1.00;;;24.40;79.00;;;;;;4840808;29;20120;-82
2023/08/02 08:57:51;;;;;;;3.50;1.10;;;24.60;79.70;;;;;;4845750;29;20064;-87
2023/08/02 09:00:18;;;;;;;2.72;0.60;;;24.80;79.50;;;;;;4834796;29;20068;-82
2023/08/02 09:02:47;;;;;;;3.65;1.05;;;25.00;79.40;;;;;;4831575;29;20173;-84
2023/08/02 09:05:15;;;;;;;1.42;0.45;;;24.90;79.60;;;;;;4819388;29;20068;-87
2023/08/02 09:07:42;;;;;;;2.30;0.60;;;24.90;78.70;;;;;;4827230;29;20179;-83
2023/08/02 09:10:09;;;;;;;1.27;0.60;;;24.90;79.40;;;;;;4818183;29;20128;-84
2023/08/02 09:12:46;;;;;;;4.20;1.10;;;25.00;77.60;;;;;;4815060;29;20673;-87
2023/08/02 09:15:15;;;;;;;1.80;0.40;;;25.00;77.00;;;;;;4813722;29;20180;-85
2023/08/02 09:17:52;;;;;;;1.50;0.30;;;25.00;77.70;;;;;;4814169;29;20414;-84
2023/08/02 09:20:25;;;;;;;3.78;0.82;;;25.00;77.60;;;;;;4815086;29;20053;-84
2023/08/02 09:22:53;;;;;;;2.70;0.68;;;25.00;78.20;;;;;;4824259;29;20065;-86
2023/08/02 09:25:29;;;;;;;1.48;0.38;;;24.90;77.70;;;;;;4817109;29;20725;-86
2023/08/02 09:28:00;;;;;;;0.93;0.40;;;25.10;76.10;;;;;;4816332;29;20050;-85
2023/08/02 09:30:30;;;;;;;1.95;0.50;;;25.20;77.20;;;;;;4813412;29;20273;-86
2023/08/02 09:33:08;;;;;;;2.53;0.63;;;25.50;77.50;;;;;;4816277;29;20066;-85
2023/08/02 09:35:49;;;;;;;1.40;0.28;;;25.40;75.30;;;;;;4832199;29;20054;-86
2023/08/02 09:38:16;;;;;;;2.33;0.32;;;25.40;75.90;;;;;;4797734;29;20061;-84
2023/08/02 09:40:47;;;;;;;1.10;0.40;;;25.30;73.40;;;;;;4796767;29;20094;-86
2023/08/02 09:43:34;;;;;;;1.13;0.30;;;25.40;74.50;;;;;;4818293;29;20442;-87
2023/08/02 09:46:01;;;;;;;3.75;0.98;;;25.40;74.70;;;;;;4834016;29;20053;-85
2023/08/02 09:48:38;;;;;;;1.23;0.35;;;25.40;74.70;;;;;;4818473;29;20053;-86
2023/08/02 09:51:07;;;;;;;1.60;0.40;;;25.60;74.40;;;;;;4818431;29;20056;-82
2023/08/02 09:53:34;;;;;;;2.28;0.30;;;25.50;74.00;;;;;;4816686;29;20174;-86
2023/08/02 09:56:02;;;;;;;2.13;0.50;;;25.30;74.20;;;;;;4831651;29;20060;-83
2023/08/02 09:58:30;;;;;;;2.33;0.45;;;25.20;74.60;;;;;;4817874;29;20053;-86
2023/08/02 10:01:00;;;;;;;1.10;0.20;;;25.40;75.90;;;;;;4839319;29;20061;-85
2023/08/02 10:03:28;;;;;;;0.98;0.20;;;25.60;73.20;;;;;;4832427;29;20061;-84
2023/08/02 10:05:58;;;;;;;1.67;0.20;;;25.50;73.20;;;;;;4830005;29;20061;-83
2023/08/02 10:08:29;;;;;;;1.33;0.43;;;25.50;73.70;;;;;;4818177;29;20133;-86
2023/08/02 10:10:58;;;;;;;1.83;0.40;;;25.70;74.00;;;;;;4842617;29;20053;-85
2023/08/02 10:13:30;;;;;;;1.35;0.50;;;25.80;72.40;;;;;;4835675;29;20053;-84
2023/08/02 10:15:57;;;;;;;2.47;0.23;;;25.80;72.00;;;;;;4830057;29;20053;-81
2023/08/02 10:18:25;;;;;;;1.02;0.50;;;25.90;72.50;;;;;;4817421;29;20301;-83
2023/08/02 10:20:54;;;;;;;1.67;0.30;;;25.70;73.00;;;;;;4816727;29;20062;-85
2023/08/02 10:23:21;;;;;;;1.65;0.28;;;25.80;72.40;;;;;;4822366;29;20064;-85
2023/08/02 10:25:49;;;;;;;3.22;0.30;;;25.90;70.60;;;;;;4819319;29;20646;-83
2023/08/02 10:28:17;;;;;;;1.60;0.40;;;25.90;70.40;;;;;;4824693;29;20275;-83
2023/08/02 10:30:44;;;;;;;2.05;0.22;;;25.80;69.80;;;;;;4820268;29;20501;-84
2023/08/02 10:33:19;;;;;;;2.70;0.40;;;25.50;69.80;;;;;;4839983;29;20041;-84
2023/08/02 10:35:57;;;;;;;1.13;0.40;;;25.50;70.20;;;;;;4817783;29;20431;-86
2023/08/02 10:38:42;;;;;;;2.97;0.30;;;25.80;70.20;;;;;;4817863;29;22029;-83
2023/08/02 10:41:21;;;;;;;0.88;0.30;;;25.90;70.80;;;;;;4829522;29;20154;-84
2023/08/02 10:43:55;;;;;;;0.77;0.20;;;25.90;68.30;;;;;;4837327;29;20050;-82
2023/08/02 10:46:24;;;;;;;1.70;0.40;;;26.10;68.90;;;;;;4834736;29;20053;-82
2023/08/02 10:48:52;;;;;;;2.13;0.40;;;25.90;70.30;;;;;;4847911;29;20779;-83
2023/08/02 10:51:31;;;;;;;1.08;0.22;;;25.60;70.80;;;;;;4835018;29;20230;-83
2023/08/02 10:54:13;;;;;;;0.85;0.40;;;25.90;70.50;;;;;;4837929;29;20390;-82
2023/08/02 10:56:52;;;;;;;;;;;26.10;70.80;;;;;;4837605;29;20072;-82
2023/08/02 10:59:22;;;;;;;1.02;0.40;;;26.20;67.60;;;;;;4833878;29;19992;-82
2023/08/02 11:02:00;;;;;;;0.93;0.20;;;26.10;67.70;;;;;;4816475;29;20061;-83
2023/08/02 11:04:28;;;;;;;0.95;0.43;;;26.30;69.30;;;;;;4824875;29;20180;-81
2023/08/02 11:07:17;;;;;;;1.67;0.20;;;26.20;67.60;;;;;;4824427;29;20111;-80
2023/08/02 11:09:46;;;;;;;1.73;0.32;;;26.30;66.60;;;;;;4837789;29;20077;-82
2023/08/02 11:12:19;;;;;;;1.05;0.20;;;26.50;66.40;;;;;;4816304;29;20532;-82
2023/08/02 11:14:49;;;;;;;0.93;0.40;;;26.50;65.30;;;;;;4831675;29;20537;-83
2023/08/02 11:17:20;;;;;;;1.65;0.30;;;26.10;65.70;;;;;;4820762;29;20069;-83
2023/08/02 11:19:53;;;;;;;1.05;0.40;;;26.10;65.50;;;;;;4833202;29;20136;-83
2023/08/02 11:22:23;;;;;;;2.05;0.40;;;26.00;64.80;;;;;;4843693;29;20061;-83
2023/08/02 11:24:52;;;;;;;1.08;0.20;;;26.20;65.10;;;;;;4813157;29;20140;-83
2023/08/02 11:27:24;;;;;;;4.13;0.30;;;26.30;66.60;;;;;;4831543;29;20057;-81
2023/08/02 11:30:12;;;;;;;0.40;0.20;;;26.50;66.90;;;;;;4814750;29;20057;-82
2023/08/02 11:32:44;;;;;;;3.28;0.40;;;26.70;65.40;;;;;;4833578;29;20069;-81
2023/08/02 11:35:16;;;;;;;0.85;0.30;;;26.40;64.40;;;;;;4839092;29;20057;-82
2023/08/02 11:37:44;;;;;;;0.60;0.25;;;26.30;65.30;;;;;;4819156;29;20101;-81
2023/08/02 11:40:12;;;;;;;2.53;0.50;;;26.40;65.60;;;;;;4820580;29;20059;-83
2023/08/02 11:42:53;;;;;;;1.73;0.30;;;26.30;63.90;;;;;;4840895;29;20065;-82
2023/08/02 11:45:36;;;;;;;1.52;0.52;;;26.10;64.70;;;;;;4820021;29;20057;-82
2023/08/02 11:48:04;;;;;;;1.05;0.22;;;26.10;65.40;;;;;;4836689;29;20057;-81
2023/08/02 11:50:38;;;;;;;1.52;0.30;;;26.30;66.40;;;;;;4843652;29;20049;-81
2023/08/02 11:53:07;;;;;;;0.63;0.22;;;26.20;64.00;;;;;;4815478;29;20049;-83
2023/08/02 11:55:36;;;;;;;1.42;0.30;;;26.20;64.90;;;;;;4825888;29;20049;-82
2023/08/02 11:58:05;;;;;;;0.70;0.20;;;26.20;64.90;;;;;;4859653;29;20056;-83
2023/08/02 12:00:33;;;;;;;0.50;0.20;;;26.10;62.90;;;;;;4840892;29;20058;-82
2023/08/02 12:03:13;;;;;;;0.95;0.20;;;26.00;63.40;;;;;;4823811;29;20521;-83
2023/08/02 12:05:43;;;;;;;0.85;0.20;;;26.00;63.50;;;;;;4817518;29;20074;-83
2023/08/02 12:08:17;;;;;;;1.80;0.30;;;26.20;64.60;;;;;;4821480;29;20174;-83
2023/08/02 12:10:46;;;;;;;1.02;0.32;;;26.30;65.00;;;;;;4835376;29;20064;-82
2023/08/02 12:13:16;;;;;;;1.70;0.30;;;26.40;65.60;;;;;;4845307;29;20144;-83
2023/08/02 12:16:06;;;;;;;1.52;0.30;;;26.30;64.90;;;;;;4841331;29;20050;-79
2023/08/02 12:18:57;;;;;;;2.15;0.22;;;26.50;65.80;;;;;;4833902;29;20136;-82
2023/08/02 12:21:26;;;;;;;0.88;0.30;;;26.50;62.90;;;;;;4818245;29;20057;-83
2023/08/02 12:23:53;;;;;;;1.33;0.20;;;26.40;63.40;;;;;;4833332;29;20057;-83
2023/08/02 12:26:47;;;;;;;1.08;0.20;;;26.40;61.80;;;;;;4846439;29;20061;-82
2023/08/02 12:29:22;;;;;;;1.42;0.20;;;26.20;61.40;;;;;;4832949;29;22308;-82
2023/08/02 12:31:53;;;;;;;1.15;0.28;;;26.10;62.40;;;;;;4841798;29;20045;-83
2023/08/02 12:34:25;;;;;;;1.85;0.20;;;26.20;64.70;;;;;;4818915;29;22517;-80
2023/08/02 12:36:53;;;;;;;0.95;0.20;;;26.20;64.60;;;;;;4814716;29;20061;-81
2023/08/02 12:39:22;;;;;;;0.80;0.20;;;26.20;62.80;;;;;;4815803;29;20873;-82
2023/08/02 12:41:49;;;;;;;0.85;0.20;;;26.10;63.00;;;;;;4834220;29;20070;-83
2023/08/02 12:44:16;;;;;;;0.70;0.30;;;26.00;64.10;;;;;;4815198;29;20057;-83
2023/08/02 12:46:45;;;;;;;0.90;0.30;;;26.10;64.00;;;;;;4832727;29;20053;-82
2023/08/02 12:49:12;;;;;;;0.82;0.30;;;26.10;63.30;;;;;;4836044;29;20037;-82
2023/08/02 12:51:39;;;;;;;1.85;0.20;;;26.10;64.80;;;;;;4837702;29;20148;-82
2023/08/02 12:54:06;;;;;;;1.58;0.20;;;26.20;64.60;;;;;;4818850;29;20094;-83
2023/08/02 12:56:33;;;;;;;1.00;0.30;;;26.30;63.80;;;;;;4818653;29;20128;-84
2023/08/02 12:59:00;;;;;;;2.42;0.20;;;26.40;63.00;;;;;;4818910;29;20061;-81
2023/08/02 13:01:28;;;;;;;0.77;0.20;;;26.50;62.50;;;;;;4819839;29;20061;-81
2023/08/02 13:03:55;;;;;;;1.08;0.20;;;26.20;62.10;;;;;;4813318;29;22271;-81
2023/08/02 13:06:22;;;;;;;0.55;0.20;;;26.00;62.00;;;;;;4812303;29;20068;-82
2023/08/02 13:08:50;;;;;;;7.45;2.08;;;26.20;61.70;;;;;;4815305;29;20140;-82
2023/08/02 13:11:17;;;;;;;1.73;0.47;;;26.40;61.90;;;;;;4799999;29;20540;-83
2023/08/02 13:13:44;;;;;;;1.55;0.17;;;26.40;61.80;;;;;;4832225;29;20180;-82
2023/08/02 13:16:11;;;;;;;1.33;0.30;;;26.50;62.20;;;;;;4835020;29;20144;-83
2023/08/02 13:18:38;;;;;;;0.82;0.22;;;26.40;60.80;;;;;;4834628;29;20056;-82
2023/08/02 13:21:06;;;;;;;1.20;0.28;;;26.50;62.40;;;;;;4810950;29;20058;-82
2023/08/02 13:23:33;;;;;;;2.47;0.30;;;26.60;63.20;;;;;;4853910;29;20050;-83
2023/08/02 13:26:02;;;;;;;0.57;0.20;;;26.70;62.60;;;;;;4837428;29;20536;-82
2023/08/02 13:28:29;;;;;;;0.95;0.20;;;26.60;61.50;;;;;;4834164;29;20067;-82